AirNav   Air Wisconsin pilot careers
 
 644 users online  

S42 Springer Municipal Airport
Springer, New Mexico, USA

GOING TO SPRINGER?


FAA INFORMATION EFFECTIVE 28 MARCH 2019

Location

FAA Identifier: S42
Lat/Long: 36-19-53.4800N / 104-37-04.2650W
36-19.891333N / 104-37.071083W
36.3315222 / -104.6178514
(estimated)
Elevation: 5894 ft. / 1796.5 m (surveyed)
Variation: 11E (1985)
From city: 1 mile S of SPRINGER, NM
Time zone: UTC -6 (UTC -7 during Standard Time)
Zip code: 87747

Airport Operations

Airport use: Open to the public
Activation date: 09/1973
Control tower: no
ARTCC: ALBUQUERQUE CENTER
FSS: ALBUQUERQUE FLIGHT SERVICE STATION
ALBUQUERQUE AFSS TOLL FREE CALL DIAL 1-800-525-9963.
NOTAMs facility: ABQ (NOTAM-D service available)
Attendance: UNATNDD
Wind indicator: lighted
Segmented circle: yes
Lights: MIRL RY 01/19 PRESET LOW INTST; TO INCR INTST ACTVT - 122.8.
Beacon: white-green (lighted land airport)
Operates sunset to sunrise.

Airport Communications

CTAF: 122.9

Nearby radio navigation aids

VOR radial/distance  VOR name  Freq  Var
CIMr115/15.6CIMARRON VORTAC116.4013E

Airport Services

Parking: tiedowns
Airframe service: NONE
Powerplant service: NONE
Bottled oxygen: NONE
Bulk oxygen: NONE

Runway Information

Runway 1/19

Dimensions: 5003 x 60 ft. / 1525 x 18 m
Surface: asphalt, in fair condition
Weight bearing capacity: 
PCN 3 /F/D/Y/T
Single wheel: 8.5
Runway edge lights: medium intensity
RUNWAY 1  RUNWAY 19
Latitude: 36-19.503833N36-20.278833N
Longitude: 104-37.245000W104-36.897167W
Elevation: 5877.0 ft.5894.0 ft.
Gradient: 0.3%0.3%
Traffic pattern: leftleft
Runway heading: 009 magnetic, 020 true189 magnetic, 200 true
Markings: basic, in good conditionbasic, in good condition
Touchdown point: yes, no lightsyes, no lights
Obstructions: 18 ft. hill, 1000 ft. from runway, 44:1 slope to clearnone

Airport Ownership and Management from official FAA records

Ownership: Publicly-owned
Owner: TOWN OF SPRINGER
PO BOX 488
SPRINGER, NM 87747
Phone 575-483-2682
Manager: MARTIN BRIDGES
P.O. BOX 488
SPRINGER, NM 87747
Phone 575-483-2321
EXT 217; EMERGENCY CONTACT 575-447-2603 CELL PHONE.

Airport Operational Statistics

Aircraft operations: 30/year *
67% transient general aviation
33% military
* for 12-month period ending 30 March 2016

Additional Remarks

RY ARPT ROAD GATES LOCKED; FOR ENTRY & EXIT CALL 575-483-2321 EXTENSION 217 BEFORE ARRIVAL. NO PHONE ON ARPT.
RY 19 3-10 FT DROP OFF 30 FT FM RY EDGE WEST SIDE 1ST 300 FT FM THLD.
WILDLIFE ON AND IN VICINITY OF AIRPORT.

Instrument Procedures

There are no published instrument procedures at S42.

Some nearby airports with instrument procedures:

KRTN - Raton Municipal Airport/Crews Field (25 nm N)
KAXX - Angel Fire Airport (33 nm W)
KLVS - Las Vegas Municipal Airport (48 nm SW)
KSKX - Taos Regional Airport (51 nm W)
KTAD - Perry Stokes Airport (57 nm N)
 
Loc | Ops | Rwys | IFR | FBO | Links
Com | Nav | Svcs | Stats | Notes
Area around S42 (Springer Municipal Airport)
 
Road maps at: MapQuest Bing Google
 
Aerial photo
WARNING: Photo may not be current or correct
Aerial photo of S42 (Springer Municipal Airport)
Photo taken 12-Sep-2015
looking south-southeast.

Do you have a better or more recent aerial photo of Springer Municipal Airport that you would like to share? If so, please send us your photo.

 
Sectional chart

 
Airport distance calculator
Flying to Springer Municipal Airport? Find the distance to fly.

From to S42

Sunrise and sunset
Times for 24-Apr-2019
 Local
(UTC-6)
 Zulu
(UTC)
Morning civil twilight05:4711:47
Sunrise06:1412:14
Sunset19:3901:39
Evening civil twilight20:0602:06

Current date and time
Zulu (UTC)  24-Apr-2019 11:17:50
Local (UTC-6)  24-Apr-2019 05:17:50
 
METAR
KRTN 
25nm N 
241100Z AUTO 04005KT 1 3/4SM BR FEW001 BKN090 01/00 A3003 RMK AO2 T00110000
KAXX 
33nm W 
241055Z AUTO 04004KT 10SM 00/M01 A3015 RMK AO2 T10011007
KLVS 
48nm SW 
241053Z AUTO 36007KT 10SM CLR 01/00 A3004 RMK AO2 SLP139 T00110000 $
3CO4 
48nm NW 
SuperAWOS
241055Z AUTO 14005KT 10SM M01/M01 A3012
CO92 
48nm NW 
SuperAWOS
241055Z AUTO 00000KT 10SM 03/03 A3021
TAF
KLVS 
48nm SW 
240825Z 2408/2506 20009KT P6SM VCFG SCT001 TEMPO 2409/2412 1/4SM FG VV001 FM241200 02005KT P6SM SCT100 FM241800 06008KT P6SM SCT120 FM250100 15007KT P6SM FEW120
NOTAMs
Click for the latest NOTAMs
NOTAMs are issued by the DoD/FAA and will open in a separate window not controlled by AirNav.

 

 
 

Would you like to see your business listed on this page?

 If your business provides an interesting product or service to pilots, flight crews, aircraft, or users of the Springer Municipal Airport, you should consider listing it here.  To start the listing process, click on the button below
 
Add a business
 

Other Pages about Springer Municipal Airport

Update a link
 
Copyright © AirNav, LLC. All rights reserved. Privacy Policy  Contact